sensor_id;sensor_type;location;lat;lon;timestamp;P1;P2;P0
70520;PMS5003;58442;52.716;23.560;2023-04-25T00:00:44;7;7;6
70520;PMS5003;58442;52.716;23.560;2023-04-25T00:02:51;5;5;4
70520;PMS5003;58442;52.716;23.560;2023-04-25T00:04:52;8;8;5
70520;PMS5003;58442;52.716;23.560;2023-04-25T00:06:58;9;9;8
70520;PMS5003;58442;52.716;23.560;2023-04-25T00:09:02;5;5;5
70520;PMS5003;58442;52.716;23.560;2023-04-25T00:11:10;5;5;5
70520;PMS5003;58442;52.716;23.560;2023-04-25T00:13:11;6;6;4
70520;PMS5003;58442;52.716;23.560;2023-04-25T00:15:15;7;7;5
70520;PMS5003;58442;52.716;23.560;2023-04-25T00:17:17;7;7;6
70520;PMS5003;58442;52.716;23.560;2023-04-25T00:19:19;6;6;5
70520;PMS5003;58442;52.716;23.560;2023-04-25T00:21:21;7;7;5
70520;PMS5003;58442;52.716;23.560;2023-04-25T00:23:25;2;2;2
70520;PMS5003;58442;52.716;23.560;2023-04-25T00:25:30;5;5;3
70520;PMS5003;58442;52.716;23.560;2023-04-25T00:27:33;7;7;6
70520;PMS5003;58442;52.716;23.560;2023-04-25T00:29:35;8;8;7
70520;PMS5003;58442;52.716;23.560;2023-04-25T00:31:36;7;7;6
70520;PMS5003;58442;52.716;23.560;2023-04-25T00:33:45;7;7;6
70520;PMS5003;58442;52.716;23.560;2023-04-25T00:35:47;6;6;5
70520;PMS5003;58442;52.716;23.560;2023-04-25T00:37:49;6;6;4
70520;PMS5003;58442;52.716;23.560;2023-04-25T00:39:51;8;8;6
70520;PMS5003;58442;52.716;23.560;2023-04-25T00:42:00;8;6;5
70520;PMS5003;58442;52.716;23.560;2023-04-25T00:44:03;6;6;6
70520;PMS5003;58442;52.716;23.560;2023-04-25T00:46:05;6;6;4
70520;PMS5003;58442;52.716;23.560;2023-04-25T00:48:06;10;10;6
70520;PMS5003;58442;52.716;23.560;2023-04-25T00:50:15;7;7;5
70520;PMS5003;58442;52.716;23.560;2023-04-25T00:52:17;8;8;6
70520;PMS5003;58442;52.716;23.560;2023-04-25T00:54:18;4;4;4
70520;PMS5003;58442;52.716;23.560;2023-04-25T00:56:21;7;7;6
70520;PMS5003;58442;52.716;23.560;2023-04-25T00:58:30;5;4;2
70520;PMS5003;58442;52.716;23.560;2023-04-25T01:00:33;7;7;5
70520;PMS5003;58442;52.716;23.560;2023-04-25T01:02:35;7;7;5
70520;PMS5003;58442;52.716;23.560;2023-04-25T01:04:38;4;4;4
70520;PMS5003;58442;52.716;23.560;2023-04-25T01:06:45;8;8;5
70520;PMS5003;58442;52.716;23.560;2023-04-25T01:08:47;4;4;4
70520;PMS5003;58442;52.716;23.560;2023-04-25T01:10:49;9;9;7
70520;PMS5003;58442;52.716;23.560;2023-04-25T01:12:50;6;6;5
70520;PMS5003;58442;52.716;23.560;2023-04-25T01:15:00;6;6;5
70520;PMS5003;58442;52.716;23.560;2023-04-25T01:17:02;8;8;6
70520;PMS5003;58442;52.716;23.560;2023-04-25T01:19:06;8;8;4
70520;PMS5003;58442;52.716;23.560;2023-04-25T01:21:15;8;8;6
70520;PMS5003;58442;52.716;23.560;2023-04-25T01:23:17;7;7;6
70520;PMS5003;58442;52.716;23.560;2023-04-25T01:25:20;6;6;4
70520;PMS5003;58442;52.716;23.560;2023-04-25T01:27:23;8;8;7
70520;PMS5003;58442;52.716;23.560;2023-04-25T01:29:27;8;8;7
70520;PMS5003;58442;52.716;23.560;2023-04-25T01:31:30;5;5;4
70520;PMS5003;58442;52.716;23.560;2023-04-25T01:33:33;6;6;4
70520;PMS5003;58442;52.716;23.560;2023-04-25T01:35:34;8;8;6
70520;PMS5003;58442;52.716;23.560;2023-04-25T01:37:37;6;6;4
70520;PMS5003;58442;52.716;23.560;2023-04-25T01:39:44;8;8;6
70520;PMS5003;58442;52.716;23.560;2023-04-25T01:41:47;7;7;6
70520;PMS5003;58442;52.716;23.560;2023-04-25T01:43:49;6;6;5
70520;PMS5003;58442;52.716;23.560;2023-04-25T01:45:51;7;7;6
70520;PMS5003;58442;52.716;23.560;2023-04-25T01:47:59;9;9;7
70520;PMS5003;58442;52.716;23.560;2023-04-25T01:50:02;5;5;5
70520;PMS5003;58442;52.716;23.560;2023-04-25T01:52:05;9;9;6
70520;PMS5003;58442;52.716;23.560;2023-04-25T01:54:07;8;8;6
70520;PMS5003;58442;52.716;23.560;2023-04-25T01:56:14;9;9;6
70520;PMS5003;58442;52.716;23.560;2023-04-25T01:58:16;8;8;7
70520;PMS5003;58442;52.716;23.560;2023-04-25T02:00:18;7;7;6
70520;PMS5003;58442;52.716;23.560;2023-04-25T02:02:20;5;5;4
70520;PMS5003;58442;52.716;23.560;2023-04-25T02:04:29;6;6;5
70520;PMS5003;58442;52.716;23.560;2023-04-25T02:06:31;6;6;5
70520;PMS5003;58442;52.716;23.560;2023-04-25T02:08:33;7;7;5
70520;PMS5003;58442;52.716;23.560;2023-04-25T02:10:35;7;7;4
70520;PMS5003;58442;52.716;23.560;2023-04-25T02:12:44;6;6;6
70520;PMS5003;58442;52.716;23.560;2023-04-25T02:14:46;7;7;4
70520;PMS5003;58442;52.716;23.560;2023-04-25T02:16:48;5;5;4
70520;PMS5003;58442;52.716;23.560;2023-04-25T02:18:51;6;6;6
70520;PMS5003;58442;52.716;23.560;2023-04-25T02:20:59;8;8;6
70520;PMS5003;58442;52.716;23.560;2023-04-25T02:23:02;5;5;4
70520;PMS5003;58442;52.716;23.560;2023-04-25T02:25:04;7;7;7
70520;PMS5003;58442;52.716;23.560;2023-04-25T02:27:06;6;6;4
70520;PMS5003;58442;52.716;23.560;2023-04-25T02:29:14;5;5;4
70520;PMS5003;58442;52.716;23.560;2023-04-25T02:31:16;6;6;6
70520;PMS5003;58442;52.716;23.560;2023-04-25T02:33:18;6;6;5
70520;PMS5003;58442;52.716;23.560;2023-04-25T02:35:21;7;6;5
70520;PMS5003;58442;52.716;23.560;2023-04-25T02:37:29;7;7;6
70520;PMS5003;58442;52.716;23.560;2023-04-25T02:39:32;6;6;5
70520;PMS5003;58442;52.716;23.560;2023-04-25T02:41:34;9;9;7
70520;PMS5003;58442;52.716;23.560;2023-04-25T02:43:36;8;8;6
70520;PMS5003;58442;52.716;23.560;2023-04-25T02:45:44;6;6;5
70520;PMS5003;58442;52.716;23.560;2023-04-25T02:47:45;4;4;2
70520;PMS5003;58442;52.716;23.560;2023-04-25T02:49:48;6;6;5
70520;PMS5003;58442;52.716;23.560;2023-04-25T02:51:49;5;5;5
70520;PMS5003;58442;52.716;23.560;2023-04-25T02:53:58;8;8;6
70520;PMS5003;58442;52.716;23.560;2023-04-25T02:56:00;7;7;5
70520;PMS5003;58442;52.716;23.560;2023-04-25T02:58:03;7;7;6
70520;PMS5003;58442;52.716;23.560;2023-04-25T03:00:05;8;8;6
70520;PMS5003;58442;52.716;23.560;2023-04-25T03:02:13;7;7;6
70520;PMS5003;58442;52.716;23.560;2023-04-25T03:04:15;5;5;4
70520;PMS5003;58442;52.716;23.560;2023-04-25T03:06:17;8;8;6
70520;PMS5003;58442;52.716;23.560;2023-04-25T03:08:19;6;6;5
70520;PMS5003;58442;52.716;23.560;2023-04-25T03:10:28;7;7;5
70520;PMS5003;58442;52.716;23.560;2023-04-25T03:12:30;5;5;4
70520;PMS5003;58442;52.716;23.560;2023-04-25T03:14:32;7;7;6
70520;PMS5003;58442;52.716;23.560;2023-04-25T03:16:34;6;6;6
70520;PMS5003;58442;52.716;23.560;2023-04-25T03:18:46;6;6;5
70520;PMS5003;58442;52.716;23.560;2023-04-25T03:20:48;6;6;5
70520;PMS5003;58442;52.716;23.560;2023-04-25T03:22:51;8;8;6
70520;PMS5003;58442;52.716;23.560;2023-04-25T03:24:52;7;7;6
70520;PMS5003;58442;52.716;23.560;2023-04-25T03:26:58;9;9;5
70520;PMS5003;58442;52.716;23.560;2023-04-25T03:29:01;7;7;6
70520;PMS5003;58442;52.716;23.560;2023-04-25T03:31:02;5;4;3
70520;PMS5003;58442;52.716;23.560;2023-04-25T03:33:04;6;6;5
70520;PMS5003;58442;52.716;23.560;2023-04-25T03:35:13;10;9;8
70520;PMS5003;58442;52.716;23.560;2023-04-25T03:37:15;6;6;6
70520;PMS5003;58442;52.716;23.560;2023-04-25T03:39:17;3;3;2
70520;PMS5003;58442;52.716;23.560;2023-04-25T03:41:19;7;7;5
70520;PMS5003;58442;52.716;23.560;2023-04-25T03:43:28;8;8;7
70520;PMS5003;58442;52.716;23.560;2023-04-25T03:45:30;7;7;4
70520;PMS5003;58442;52.716;23.560;2023-04-25T03:47:33;7;7;6
70520;PMS5003;58442;52.716;23.560;2023-04-25T03:49:35;5;5;4
70520;PMS5003;58442;52.716;23.560;2023-04-25T03:51:43;7;7;6
70520;PMS5003;58442;52.716;23.560;2023-04-25T03:53:45;10;9;6
70520;PMS5003;58442;52.716;23.560;2023-04-25T03:55:47;8;8;7
70520;PMS5003;58442;52.716;23.560;2023-04-25T03:57:48;9;9;6
70520;PMS5003;58442;52.716;23.560;2023-04-25T03:59:58;7;7;7
70520;PMS5003;58442;52.716;23.560;2023-04-25T04:02:00;6;6;5
70520;PMS5003;58442;52.716;23.560;2023-04-25T04:04:01;6;6;4
70520;PMS5003;58442;52.716;23.560;2023-04-25T04:06:03;4;4;4
70520;PMS5003;58442;52.716;23.560;2023-04-25T04:08:13;8;8;4
70520;PMS5003;58442;52.716;23.560;2023-04-25T04:10:15;7;7;6
70520;PMS5003;58442;52.716;23.560;2023-04-25T04:12:16;3;3;2
70520;PMS5003;58442;52.716;23.560;2023-04-25T04:14:17;8;8;6
70520;PMS5003;58442;52.716;23.560;2023-04-25T04:16:28;1;1;1
70520;PMS5003;58442;52.716;23.560;2023-04-25T04:18:30;5;5;5
70520;PMS5003;58442;52.716;23.560;2023-04-25T04:20:33;6;6;5
70520;PMS5003;58442;52.716;23.560;2023-04-25T04:22:35;7;7;5
70520;PMS5003;58442;52.716;23.560;2023-04-25T04:24:43;6;6;6
70520;PMS5003;58442;52.716;23.560;2023-04-25T04:26:50;9;9;8
70520;PMS5003;58442;52.716;23.560;2023-04-25T04:28:53;8;8;7
70520;PMS5003;58442;52.716;23.560;2023-04-25T04:30:55;6;6;5
70520;PMS5003;58442;52.716;23.560;2023-04-25T04:32:58;8;8;4
70520;PMS5003;58442;52.716;23.560;2023-04-25T04:35:03;4;4;4
70520;PMS5003;58442;52.716;23.560;2023-04-25T04:37:05;6;6;5
70520;PMS5003;58442;52.716;23.560;2023-04-25T04:39:07;6;6;5
70520;PMS5003;58442;52.716;23.560;2023-04-25T04:41:12;5;5;4
70520;PMS5003;58442;52.716;23.560;2023-04-25T04:43:14;7;7;6
70520;PMS5003;58442;52.716;23.560;2023-04-25T04:45:19;7;7;6
70520;PMS5003;58442;52.716;23.560;2023-04-25T04:47:24;6;6;4
70520;PMS5003;58442;52.716;23.560;2023-04-25T04:49:31;10;10;7
70520;PMS5003;58442;52.716;23.560;2023-04-25T04:51:33;6;6;5
70520;PMS5003;58442;52.716;23.560;2023-04-25T04:53:35;8;8;6
70520;PMS5003;58442;52.716;23.560;2023-04-25T04:55:37;8;8;7
70520;PMS5003;58442;52.716;23.560;2023-04-25T04:57:42;6;6;6
70520;PMS5003;58442;52.716;23.560;2023-04-25T04:59:44;7;7;6
70520;PMS5003;58442;52.716;23.560;2023-04-25T05:01:46;6;6;6
70520;PMS5003;58442;52.716;23.560;2023-04-25T05:03:49;7;7;6
70520;PMS5003;58442;52.716;23.560;2023-04-25T05:05:57;6;6;4
70520;PMS5003;58442;52.716;23.560;2023-04-25T05:07:59;7;7;6
70520;PMS5003;58442;52.716;23.560;2023-04-25T05:10:01;4;4;3
70520;PMS5003;58442;52.716;23.560;2023-04-25T05:12:05;7;7;6
70520;PMS5003;58442;52.716;23.560;2023-04-25T05:14:12;8;8;6
70520;PMS5003;58442;52.716;23.560;2023-04-25T05:16:14;6;6;5
70520;PMS5003;58442;52.716;23.560;2023-04-25T05:18:15;6;6;5
70520;PMS5003;58442;52.716;23.560;2023-04-25T05:20:17;5;5;4
70520;PMS5003;58442;52.716;23.560;2023-04-25T05:22:27;10;10;6
70520;PMS5003;58442;52.716;23.560;2023-04-25T05:24:30;7;7;6
70520;PMS5003;58442;52.716;23.560;2023-04-25T05:26:32;5;5;5
70520;PMS5003;58442;52.716;23.560;2023-04-25T05:28:35;7;7;6
70520;PMS5003;58442;52.716;23.560;2023-04-25T05:30:42;7;7;6
70520;PMS5003;58442;52.716;23.560;2023-04-25T05:32:43;7;7;5
70520;PMS5003;58442;52.716;23.560;2023-04-25T05:34:45;8;8;5
70520;PMS5003;58442;52.716;23.560;2023-04-25T05:36:47;5;5;4
70520;PMS5003;58442;52.716;23.560;2023-04-25T05:38:57;11;11;7
70520;PMS5003;58442;52.716;23.560;2023-04-25T05:40:59;7;7;6
70520;PMS5003;58442;52.716;23.560;2023-04-25T05:43:01;9;9;6
70520;PMS5003;58442;52.716;23.560;2023-04-25T05:45:02;8;8;6
70520;PMS5003;58442;52.716;23.560;2023-04-25T05:47:11;5;5;4
70520;PMS5003;58442;52.716;23.560;2023-04-25T05:49:13;7;7;5
70520;PMS5003;58442;52.716;23.560;2023-04-25T05:51:15;5;5;5
70520;PMS5003;58442;52.716;23.560;2023-04-25T05:53:19;7;7;5
70520;PMS5003;58442;52.716;23.560;2023-04-25T05:55:26;7;7;5
70520;PMS5003;58442;52.716;23.560;2023-04-25T05:57:28;4;4;3
70520;PMS5003;58442;52.716;23.560;2023-04-25T05:59:30;7;6;5
70520;PMS5003;58442;52.716;23.560;2023-04-25T06:01:31;9;8;7
70520;PMS5003;58442;52.716;23.560;2023-04-25T06:03:41;7;7;5
70520;PMS5003;58442;52.716;23.560;2023-04-25T06:05:46;5;5;4
70520;PMS5003;58442;52.716;23.560;2023-04-25T06:07:48;7;7;6
70520;PMS5003;58442;52.716;23.560;2023-04-25T06:09:50;7;7;6
70520;PMS5003;58442;52.716;23.560;2023-04-25T06:11:56;8;8;6
70520;PMS5003;58442;52.716;23.560;2023-04-25T06:13:57;6;6;4
70520;PMS5003;58442;52.716;23.560;2023-04-25T06:15:59;5;5;4
70520;PMS5003;58442;52.716;23.560;2023-04-25T06:18:01;8;8;6
70520;PMS5003;58442;52.716;23.560;2023-04-25T06:20:11;5;5;4
70520;PMS5003;58442;52.716;23.560;2023-04-25T06:22:13;6;6;5
70520;PMS5003;58442;52.716;23.560;2023-04-25T06:24:14;8;8;6
70520;PMS5003;58442;52.716;23.560;2023-04-25T06:26:16;6;6;5
70520;PMS5003;58442;52.716;23.560;2023-04-25T06:28:26;8;8;8
70520;PMS5003;58442;52.716;23.560;2023-04-25T06:30:28;8;7;6
70520;PMS5003;58442;52.716;23.560;2023-04-25T06:32:30;9;9;6
70520;PMS5003;58442;52.716;23.560;2023-04-25T06:34:32;10;10;8
70520;PMS5003;58442;52.716;23.560;2023-04-25T06:36:41;9;9;6
70520;PMS5003;58442;52.716;23.560;2023-04-25T06:38:42;8;8;7
70520;PMS5003;58442;52.716;23.560;2023-04-25T06:40:44;11;11;8
70520;PMS5003;58442;52.716;23.560;2023-04-25T06:42:46;9;9;7
70520;PMS5003;58442;52.716;23.560;2023-04-25T06:44:55;9;9;8
70520;PMS5003;58442;52.716;23.560;2023-04-25T06:46:57;10;10;8
70520;PMS5003;58442;52.716;23.560;2023-04-25T06:48:59;9;9;5
70520;PMS5003;58442;52.716;23.560;2023-04-25T06:51:02;9;9;8
70520;PMS5003;58442;52.716;23.560;2023-04-25T06:53:10;10;10;7
70520;PMS5003;58442;52.716;23.560;2023-04-25T06:55:12;10;10;8
70520;PMS5003;58442;52.716;23.560;2023-04-25T06:57:14;10;10;8
70520;PMS5003;58442;52.716;23.560;2023-04-25T06:59:15;8;8;7
70520;PMS5003;58442;52.716;23.560;2023-04-25T07:01:25;7;7;6
70520;PMS5003;58442;52.716;23.560;2023-04-25T07:03:26;10;10;8
70520;PMS5003;58442;52.716;23.560;2023-04-25T07:05:28;7;7;6
70520;PMS5003;58442;52.716;23.560;2023-04-25T07:07:30;11;10;7
70520;PMS5003;58442;52.716;23.560;2023-04-25T07:09:40;12;12;10
70520;PMS5003;58442;52.716;23.560;2023-04-25T07:11:42;11;11;8
70520;PMS5003;58442;52.716;23.560;2023-04-25T07:13:44;8;8;6
70520;PMS5003;58442;52.716;23.560;2023-04-25T07:15:45;7;7;6
70520;PMS5003;58442;52.716;23.560;2023-04-25T07:17:55;10;10;8
70520;PMS5003;58442;52.716;23.560;2023-04-25T07:19:57;8;8;7
70520;PMS5003;58442;52.716;23.560;2023-04-25T07:21:58;9;9;7
70520;PMS5003;58442;52.716;23.560;2023-04-25T07:24:00;11;11;8
70520;PMS5003;58442;52.716;23.560;2023-04-25T07:26:09;9;9;7
70520;PMS5003;58442;52.716;23.560;2023-04-25T07:28:11;8;8;8
70520;PMS5003;58442;52.716;23.560;2023-04-25T07:30:13;11;11;9
70520;PMS5003;58442;52.716;23.560;2023-04-25T07:32:15;9;9;8
70520;PMS5003;58442;52.716;23.560;2023-04-25T07:34:24;14;14;12
70520;PMS5003;58442;52.716;23.560;2023-04-25T07:36:26;11;11;9
70520;PMS5003;58442;52.716;23.560;2023-04-25T07:38:27;10;10;8
70520;PMS5003;58442;52.716;23.560;2023-04-25T07:40:29;9;9;8
70520;PMS5003;58442;52.716;23.560;2023-04-25T07:42:39;8;8;7
70520;PMS5003;58442;52.716;23.560;2023-04-25T07:44:41;12;12;9
70520;PMS5003;58442;52.716;23.560;2023-04-25T07:46:43;8;8;7
70520;PMS5003;58442;52.716;23.560;2023-04-25T07:48:46;9;9;8
70520;PMS5003;58442;52.716;23.560;2023-04-25T07:50:54;12;12;9
70520;PMS5003;58442;52.716;23.560;2023-04-25T07:52:56;11;11;8
70520;PMS5003;58442;52.716;23.560;2023-04-25T07:54:58;12;12;10
70520;PMS5003;58442;52.716;23.560;2023-04-25T07:57:00;9;9;8
70520;PMS5003;58442;52.716;23.560;2023-04-25T07:59:09;10;10;7
70520;PMS5003;58442;52.716;23.560;2023-04-25T08:01:11;12;12;10
70520;PMS5003;58442;52.716;23.560;2023-04-25T08:03:14;14;14;9
70520;PMS5003;58442;52.716;23.560;2023-04-25T08:05:15;11;11;9
70520;PMS5003;58442;52.716;23.560;2023-04-25T08:07:23;12;12;9
70520;PMS5003;58442;52.716;23.560;2023-04-25T08:09:25;9;9;8
70520;PMS5003;58442;52.716;23.560;2023-04-25T08:11:27;11;11;9
70520;PMS5003;58442;52.716;23.560;2023-04-25T08:13:30;10;10;8
70520;PMS5003;58442;52.716;23.560;2023-04-25T08:15:38;12;12;9
70520;PMS5003;58442;52.716;23.560;2023-04-25T08:17:41;11;11;10
70520;PMS5003;58442;52.716;23.560;2023-04-25T08:19:45;13;13;11
70520;PMS5003;58442;52.716;23.560;2023-04-25T08:21:47;13;13;10
70520;PMS5003;58442;52.716;23.560;2023-04-25T08:23:53;10;10;8
70520;PMS5003;58442;52.716;23.560;2023-04-25T08:25:56;13;13;10
70520;PMS5003;58442;52.716;23.560;2023-04-25T08:27:57;20;20;14
70520;PMS5003;58442;52.716;23.560;2023-04-25T08:30:03;14;14;11
70520;PMS5003;58442;52.716;23.560;2023-04-25T08:32:08;10;10;9
70520;PMS5003;58442;52.716;23.560;2023-04-25T08:34:09;6;6;4
70520;PMS5003;58442;52.716;23.560;2023-04-25T08:36:12;13;13;10
70520;PMS5003;58442;52.716;23.560;2023-04-25T08:38:13;13;13;10
70520;PMS5003;58442;52.716;23.560;2023-04-25T08:40:22;12;12;10
70520;PMS5003;58442;52.716;23.560;2023-04-25T08:42:29;12;12;10
70520;PMS5003;58442;52.716;23.560;2023-04-25T08:44:35;14;14;10
70520;PMS5003;58442;52.716;23.560;2023-04-25T08:46:40;17;17;13
70520;PMS5003;58442;52.716;23.560;2023-04-25T08:48:43;14;14;11
70520;PMS5003;58442;52.716;23.560;2023-04-25T08:50:50;17;17;14
70520;PMS5003;58442;52.716;23.560;2023-04-25T08:52:53;17;17;13
70520;PMS5003;58442;52.716;23.560;2023-04-25T08:54:57;15;15;12
70520;PMS5003;58442;52.716;23.560;2023-04-25T08:57:00;14;14;11
70520;PMS5003;58442;52.716;23.560;2023-04-25T08:59:04;14;14;12
70520;PMS5003;58442;52.716;23.560;2023-04-25T09:01:09;13;13;8
70520;PMS5003;58442;52.716;23.560;2023-04-25T09:03:11;17;17;11
70520;PMS5003;58442;52.716;23.560;2023-04-25T09:05:13;18;18;12
70520;PMS5003;58442;52.716;23.560;2023-04-25T09:07:15;16;16;13
70520;PMS5003;58442;52.716;23.560;2023-04-25T09:09:22;17;17;12
70520;PMS5003;58442;52.716;23.560;2023-04-25T09:11:24;17;17;13
70520;PMS5003;58442;52.716;23.560;2023-04-25T09:13:28;15;14;12
70520;PMS5003;58442;52.716;23.560;2023-04-25T09:15:31;14;14;10
70520;PMS5003;58442;52.716;23.560;2023-04-25T09:17:34;17;16;11
70520;PMS5003;58442;52.716;23.560;2023-04-25T09:19:40;14;14;11
70520;PMS5003;58442;52.716;23.560;2023-04-25T09:21:43;17;15;11
70520;PMS5003;58442;52.716;23.560;2023-04-25T09:23:45;15;15;12
70520;PMS5003;58442;52.716;23.560;2023-04-25T09:25:48;16;16;12
70520;PMS5003;58442;52.716;23.560;2023-04-25T09:27:53;15;15;13
70520;PMS5003;58442;52.716;23.560;2023-04-25T09:29:57;17;17;12
70520;PMS5003;58442;52.716;23.560;2023-04-25T09:34:16;13;13;11
70520;PMS5003;58442;52.716;23.560;2023-04-25T09:36:18;11;11;9
70520;PMS5003;58442;52.716;23.560;2023-04-25T09:38:28;16;16;12
70520;PMS5003;58442;52.716;23.560;2023-04-25T09:40:42;13;13;10
70520;PMS5003;58442;52.716;23.560;2023-04-25T09:42:45;16;16;12
70520;PMS5003;58442;52.716;23.560;2023-04-25T09:44:46;11;11;10
70520;PMS5003;58442;52.716;23.560;2023-04-25T09:46:49;14;14;12
70520;PMS5003;58442;52.716;23.560;2023-04-25T09:48:56;12;12;9
70520;PMS5003;58442;52.716;23.560;2023-04-25T09:53:11;17;17;11
70520;PMS5003;58442;52.716;23.560;2023-04-25T09:55:12;16;16;12
70520;PMS5003;58442;52.716;23.560;2023-04-25T09:57:16;15;15;12
70520;PMS5003;58442;52.716;23.560;2023-04-25T09:59:22;14;14;12
70520;PMS5003;58442;52.716;23.560;2023-04-25T10:01:23;16;16;13
70520;PMS5003;58442;52.716;23.560;2023-04-25T10:03:31;16;16;12
70520;PMS5003;58442;52.716;23.560;2023-04-25T10:05:34;16;15;12
70520;PMS5003;58442;52.716;23.560;2023-04-25T10:07:38;14;14;11
70520;PMS5003;58442;52.716;23.560;2023-04-25T10:09:41;17;17;12
70520;PMS5003;58442;52.716;23.560;2023-04-25T10:11:47;16;16;14
70520;PMS5003;58442;52.716;23.560;2023-04-25T10:13:49;14;14;11
70520;PMS5003;58442;52.716;23.560;2023-04-25T10:15:51;15;15;11
70520;PMS5003;58442;52.716;23.560;2023-04-25T10:17:55;16;16;11
70520;PMS5003;58442;52.716;23.560;2023-04-25T10:19:57;18;18;12
70520;PMS5003;58442;52.716;23.560;2023-04-25T10:22:12;17;17;13
70520;PMS5003;58442;52.716;23.560;2023-04-25T10:24:21;20;20;12
70520;PMS5003;58442;52.716;23.560;2023-04-25T10:26:24;16;16;12
70520;PMS5003;58442;52.716;23.560;2023-04-25T10:28:26;18;18;15
70520;PMS5003;58442;52.716;23.560;2023-04-25T10:30:29;15;15;13
70520;PMS5003;58442;52.716;23.560;2023-04-25T10:32:36;17;17;14
70520;PMS5003;58442;52.716;23.560;2023-04-25T10:36:50;18;18;13
70520;PMS5003;58442;52.716;23.560;2023-04-25T10:38:58;27;27;19
70520;PMS5003;58442;52.716;23.560;2023-04-25T10:41:10;20;20;15
70520;PMS5003;58442;52.716;23.560;2023-04-25T10:47:57;17;17;14
70520;PMS5003;58442;52.716;23.560;2023-04-25T10:49:59;12;12;9
70520;PMS5003;58442;52.716;23.560;2023-04-25T10:54:17;16;16;13
70520;PMS5003;58442;52.716;23.560;2023-04-25T10:58:33;17;17;13
70520;PMS5003;58442;52.716;23.560;2023-04-25T11:00:35;20;20;13
70520;PMS5003;58442;52.716;23.560;2023-04-25T11:02:44;15;15;10
70520;PMS5003;58442;52.716;23.560;2023-04-25T11:04:48;18;18;13
70520;PMS5003;58442;52.716;23.560;2023-04-25T11:07:00;14;14;10
70520;PMS5003;58442;52.716;23.560;2023-04-25T11:09:10;17;17;13
70520;PMS5003;58442;52.716;23.560;2023-04-25T11:11:16;12;12;11
70520;PMS5003;58442;52.716;23.560;2023-04-25T11:13:22;15;15;13
70520;PMS5003;58442;52.716;23.560;2023-04-25T11:15:32;13;13;10
70520;PMS5003;58442;52.716;23.560;2023-04-25T11:17:34;16;16;12
70520;PMS5003;58442;52.716;23.560;2023-04-25T11:19:47;16;16;12
70520;PMS5003;58442;52.716;23.560;2023-04-25T11:21:50;15;15;9
70520;PMS5003;58442;52.716;23.560;2023-04-25T11:24:00;14;14;12
70520;PMS5003;58442;52.716;23.560;2023-04-25T11:26:02;13;13;10
70520;PMS5003;58442;52.716;23.560;2023-04-25T11:28:04;14;14;10
70520;PMS5003;58442;52.716;23.560;2023-04-25T11:32:17;15;15;11
70520;PMS5003;58442;52.716;23.560;2023-04-25T11:34:20;17;17;14
70520;PMS5003;58442;52.716;23.560;2023-04-25T11:36:23;14;14;9
70520;PMS5003;58442;52.716;23.560;2023-04-25T11:38:28;11;11;9
70520;PMS5003;58442;52.716;23.560;2023-04-25T11:40:30;12;12;10
70520;PMS5003;58442;52.716;23.560;2023-04-25T11:42:32;15;15;11
70520;PMS5003;58442;52.716;23.560;2023-04-25T11:44:37;13;13;11
70520;PMS5003;58442;52.716;23.560;2023-04-25T11:46:40;13;13;11
70520;PMS5003;58442;52.716;23.560;2023-04-25T11:48:43;15;15;11
70520;PMS5003;58442;52.716;23.560;2023-04-25T11:50:45;14;14;11
70520;PMS5003;58442;52.716;23.560;2023-04-25T11:52:50;14;14;10
70520;PMS5003;58442;52.716;23.560;2023-04-25T11:54:54;12;12;10
70520;PMS5003;58442;52.716;23.560;2023-04-25T11:56:57;17;17;13
70520;PMS5003;58442;52.716;23.560;2023-04-25T11:59:00;14;14;10
70520;PMS5003;58442;52.716;23.560;2023-04-25T12:01:05;18;18;13
70520;PMS5003;58442;52.716;23.560;2023-04-25T12:03:08;17;17;15
70520;PMS5003;58442;52.716;23.560;2023-04-25T12:05:11;18;18;12
70520;PMS5003;58442;52.716;23.560;2023-04-25T12:07:16;18;18;12
70520;PMS5003;58442;52.716;23.560;2023-04-25T12:09:21;16;16;10
70520;PMS5003;58442;52.716;23.560;2023-04-25T12:11:29;19;19;13
70520;PMS5003;58442;52.716;23.560;2023-04-25T12:13:33;13;13;10
70520;PMS5003;58442;52.716;23.560;2023-04-25T12:15:35;17;17;12
70520;PMS5003;58442;52.716;23.560;2023-04-25T12:17:38;15;15;11
70520;PMS5003;58442;52.716;23.560;2023-04-25T12:19:40;15;15;10
70520;PMS5003;58442;52.716;23.560;2023-04-25T12:21:44;12;12;9
70520;PMS5003;58442;52.716;23.560;2023-04-25T12:23:46;13;13;10
70520;PMS5003;58442;52.716;23.560;2023-04-25T12:25:52;13;13;9
70520;PMS5003;58442;52.716;23.560;2023-04-25T12:27:53;17;17;11
70520;PMS5003;58442;52.716;23.560;2023-04-25T12:29:55;11;11;9
70520;PMS5003;58442;52.716;23.560;2023-04-25T12:31:57;11;11;10
70520;PMS5003;58442;52.716;23.560;2023-04-25T12:34:06;12;12;8
70520;PMS5003;58442;52.716;23.560;2023-04-25T12:36:08;14;14;8
70520;PMS5003;58442;52.716;23.560;2023-04-25T12:40:26;14;14;10
70520;PMS5003;58442;52.716;23.560;2023-04-25T12:42:27;13;13;8
70520;PMS5003;58442;52.716;23.560;2023-04-25T12:44:29;15;15;9
70520;PMS5003;58442;52.716;23.560;2023-04-25T12:46:31;13;13;9
70520;PMS5003;58442;52.716;23.560;2023-04-25T12:48:33;13;13;10
70520;PMS5003;58442;52.716;23.560;2023-04-25T12:50:39;15;15;11
70520;PMS5003;58442;52.716;23.560;2023-04-25T12:52:41;14;14;10
70520;PMS5003;58442;52.716;23.560;2023-04-25T12:54:43;10;10;10
70520;PMS5003;58442;52.716;23.560;2023-04-25T12:56:45;9;9;8
70520;PMS5003;58442;52.716;23.560;2023-04-25T12:58:51;13;13;9
70520;PMS5003;58442;52.716;23.560;2023-04-25T13:00:53;13;13;10
70520;PMS5003;58442;52.716;23.560;2023-04-25T13:02:55;54;43;27
70520;PMS5003;58442;52.716;23.560;2023-04-25T13:04:57;76;69;41
70520;PMS5003;58442;52.716;23.560;2023-04-25T13:07:06;133;113;61
70520;PMS5003;58442;52.716;23.560;2023-04-25T13:09:08;50;42;23
70520;PMS5003;58442;52.716;23.560;2023-04-25T13:11:12;44;38;22
70520;PMS5003;58442;52.716;23.560;2023-04-25T13:13:15;78;66;34
70520;PMS5003;58442;52.716;23.560;2023-04-25T13:15:23;101;82;33
70520;PMS5003;58442;52.716;23.560;2023-04-25T13:17:25;65;50;27
70520;PMS5003;58442;52.716;23.560;2023-04-25T13:19:26;27;27;16
70520;PMS5003;58442;52.716;23.560;2023-04-25T13:21:29;22;22;16
70520;PMS5003;58442;52.716;23.560;2023-04-25T13:23:37;28;28;13
70520;PMS5003;58442;52.716;23.560;2023-04-25T13:25:40;24;24;13
70520;PMS5003;58442;52.716;23.560;2023-04-25T13:27:41;23;23;15
70520;PMS5003;58442;52.716;23.560;2023-04-25T13:29:47;33;30;18
70520;PMS5003;58442;52.716;23.560;2023-04-25T13:31:52;52;41;21
70520;PMS5003;58442;52.716;23.560;2023-04-25T13:33:54;22;22;13
70520;PMS5003;58442;52.716;23.560;2023-04-25T13:35:56;16;16;10
70520;PMS5003;58442;52.716;23.560;2023-04-25T13:37:58;21;14;10
70520;PMS5003;58442;52.716;23.560;2023-04-25T13:40:09;14;14;10
70520;PMS5003;58442;52.716;23.560;2023-04-25T13:42:12;15;14;8
70520;PMS5003;58442;52.716;23.560;2023-04-25T13:44:14;13;13;10